createdAt,value
2019-01-06T00:01:43.605Z,75.68
2019-01-06T00:07:06.011Z,75.88
2019-01-06T00:12:30.626Z,76.25
2019-01-06T00:17:55.132Z,74.94
2019-01-06T00:23:21.816Z,74.50
2019-01-06T00:28:58.830Z,72.40
2019-01-06T00:34:23.781Z,72.91
2019-01-06T00:45:17.925Z,74.52
2019-01-06T00:50:43.835Z,72.01
2019-01-06T00:56:23.653Z,70.58
2019-01-06T01:01:56.848Z,71.76
2019-01-06T01:07:27.872Z,70.41
2019-01-06T01:12:49.987Z,70.59
2019-01-06T01:18:15.860Z,70.90
2019-01-06T01:23:43.702Z,70.03
2019-01-06T01:29:07.726Z,70.27
2019-01-06T01:34:38.551Z,70.63
2019-01-06T01:39:56.943Z,71.09
2019-01-06T01:45:21.985Z,70.97
2019-01-06T01:50:48.479Z,72.44
2019-01-06T01:56:13.233Z,72.65
2019-01-06T02:01:36.998Z,69.44
2019-01-06T02:07:07.888Z,70.11
2019-01-06T02:12:31.214Z,67.31
2019-01-06T02:17:59.311Z,63.21
2019-01-06T02:23:24.235Z,62.51
2019-01-06T02:28:47.899Z,64.05
2019-01-06T02:34:11.305Z,63.37
2019-01-06T02:39:27.876Z,63.01
2019-01-06T02:44:52.358Z,63.13
2019-01-06T02:50:15.958Z,64.53
2019-01-06T02:55:43.708Z,63.78
2019-01-06T03:01:26.946Z,63.92
2019-01-06T03:06:54.703Z,62.97
2019-01-06T03:12:19.416Z,63.70
2019-01-06T03:17:39.076Z,63.89
2019-01-06T03:23:04.175Z,63.64
2019-01-06T03:28:34.549Z,64.05
2019-01-06T03:34:02.292Z,63.71
2019-01-06T03:39:40.814Z,63.49
2019-01-06T03:45:16.746Z,64.13
2019-01-06T03:50:47.216Z,63.75
2019-01-06T03:56:11.812Z,64.33
2019-01-06T04:01:52.047Z,65.32
2019-01-06T04:07:15.226Z,65.29
2019-01-06T04:12:39.312Z,65.41
2019-01-06T04:18:10.511Z,66.00
2019-01-06T04:23:34.397Z,65.54
2019-01-06T04:28:58.241Z,66.08
2019-01-06T04:34:24.582Z,66.28
2019-01-06T04:39:56.444Z,65.69
2019-01-06T04:45:27.132Z,66.71
2019-01-06T04:50:51.725Z,67.25
2019-01-06T04:56:12.565Z,67.64
2019-01-06T05:01:46.322Z,67.99
2019-01-06T05:07:26.028Z,69.51
2019-01-06T05:12:59.820Z,69.52
2019-01-06T05:18:16.651Z,69.23
2019-01-06T05:23:40.071Z,69.80
2019-01-06T05:29:04.156Z,69.48
2019-01-06T05:34:28.108Z,69.96
2019-01-06T05:39:59.023Z,71.88
2019-01-06T05:45:28.025Z,73.04
2019-01-06T05:50:56.463Z,74.18
2019-01-06T05:56:21.068Z,73.98
2019-01-06T06:01:47.850Z,74.57
2019-01-06T06:07:11.198Z,73.84
2019-01-06T06:12:30.730Z,72.80
2019-01-06T06:17:55.365Z,71.92
2019-01-06T06:28:59.165Z,73.79
2019-01-06T06:34:32.776Z,74.00
2019-01-06T06:39:58.737Z,74.04
2019-01-06T06:45:22.487Z,74.71
2019-01-06T06:51:02.725Z,73.78
2019-01-06T06:56:34.890Z,73.98
2019-01-06T07:02:40.541Z,74.58
2019-01-06T07:08:04.104Z,74.11
2019-01-06T07:13:29.292Z,73.38
2019-01-06T07:18:54.421Z,74.28
2019-01-06T07:24:28.419Z,74.12
2019-01-06T07:30:08.226Z,75.08
2019-01-06T07:35:45.459Z,74.56
2019-01-06T07:41:28.582Z,74.24
2019-01-06T07:47:04.758Z,74.32
2019-01-06T07:52:31.311Z,73.96
2019-01-06T07:58:03.238Z,74.28
2019-01-06T08:03:46.186Z,74.14
2019-01-06T08:09:16.645Z,73.92
2019-01-06T08:14:50.044Z,74.27
2019-01-06T08:20:13.224Z,74.77
2019-01-06T08:25:44.132Z,74.06
2019-01-06T08:31:21.991Z,73.47
2019-01-06T08:36:45.186Z,72.80
2019-01-06T08:42:15.921Z,74.10
2019-01-06T08:47:52.532Z,72.92
2019-01-06T08:53:17.380Z,72.27
2019-01-06T08:58:40.802Z,72.01
2019-01-06T09:04:03.966Z,71.88
2019-01-06T09:09:45.770Z,70.86
2019-01-06T09:15:16.423Z,72.05
2019-01-06T09:20:39.887Z,71.69
2019-01-06T09:26:04.673Z,71.12
2019-01-06T09:31:28.405Z,72.03
2019-01-06T09:36:52.337Z,72.34
2019-01-06T09:42:22.925Z,72.80
2019-01-06T09:47:47.989Z,71.33
2019-01-06T09:53:21.656Z,71.68
2019-01-06T09:58:58.699Z,71.72
2019-01-06T10:04:36.072Z,70.67
2019-01-06T10:10:02.056Z,68.67
2019-01-06T10:15:27.624Z,67.34
2019-01-06T10:21:05.766Z,66.26
2019-01-06T10:26:30.488Z,63.20
2019-01-06T10:31:59.415Z,63.93
2019-01-06T10:37:35.841Z,64.38
2019-01-06T10:43:00.690Z,63.17
2019-01-06T10:48:26.739Z,64.41
2019-01-06T10:54:09.896Z,64.72
2019-01-06T11:05:21.318Z,63.77
2019-01-06T11:10:45.260Z,64.81
2019-01-06T11:16:15.925Z,64.23
2019-01-06T11:21:35.026Z,64.03
2019-01-06T11:26:57.946Z,63.35
2019-01-06T11:32:41.301Z,63.49
2019-01-06T11:38:04.448Z,62.40
2019-01-06T11:43:34.690Z,63.24
2019-01-06T11:48:59.818Z,62.68
2019-01-06T11:54:36.835Z,63.26
2019-01-06T12:00:16.561Z,63.15
2019-01-06T12:05:41.876Z,62.44
2019-01-06T12:11:06.762Z,62.26
2019-01-06T12:16:39.333Z,61.80
2019-01-06T12:22:16.428Z,62.67
2019-01-06T12:27:43.950Z,63.37
2019-01-06T12:33:10.121Z,62.51
2019-01-06T12:38:48.138Z,62.72
2019-01-06T12:44:14.314Z,63.56
2019-01-06T12:49:38.315Z,63.42
2019-01-06T12:55:10.868Z,63.41
2019-01-06T13:00:37.144Z,63.63
2019-01-06T13:06:02.424Z,63.92
2019-01-06T13:11:28.200Z,64.91
2019-01-06T13:17:01.808Z,65.08
2019-01-06T13:27:58.367Z,66.69
2019-01-06T13:33:35.645Z,67.46
2019-01-06T13:39:02.062Z,68.79
2019-01-06T13:44:35.928Z,70.59
2019-01-06T13:50:02.778Z,71.18
2019-01-06T13:55:43.371Z,73.82
2019-01-06T14:01:07.695Z,73.12
2019-01-06T14:06:33.690Z,72.87
2019-01-06T14:11:54.134Z,72.41
2019-01-06T14:17:25.535Z,73.25
2019-01-06T14:22:50.543Z,71.94
2019-01-06T14:28:32.311Z,71.75
2019-01-06T14:33:51.359Z,71.63
2019-01-06T14:39:34.818Z,70.90
2019-01-06T14:45:03.048Z,73.14
2019-01-06T14:50:37.286Z,73.23
2019-01-06T14:56:14.142Z,73.83
2019-01-06T15:01:51.421Z,72.94
2019-01-06T15:07:24.707Z,72.42
2019-01-06T15:12:57.149Z,72.52
2019-01-06T15:18:40.760Z,72.02
2019-01-06T15:24:10.232Z,71.93
2019-01-06T15:29:37.948Z,71.69
2019-01-06T15:35:10.368Z,70.85
2019-01-06T15:40:48.268Z,71.64
2019-01-06T15:46:11.902Z,71.37
2019-01-06T15:51:36.348Z,72.12
2019-01-06T15:57:07.514Z,71.57
2019-01-06T16:02:47.598Z,71.54
2019-01-06T16:08:12.093Z,73.67
2019-01-06T16:13:40.504Z,73.39
2019-01-06T16:19:08.268Z,72.33
2019-01-06T16:24:32.902Z,72.44
2019-01-06T16:30:16.051Z,71.92
2019-01-06T16:35:54.518Z,72.58
2019-01-06T16:41:20.309Z,73.29
2019-01-06T16:46:57.231Z,73.07
2019-01-06T16:52:20.890Z,72.45
2019-01-06T16:57:46.315Z,72.24
2019-01-06T17:03:15.013Z,71.31
2019-01-06T17:08:46.602Z,71.14
2019-01-06T17:14:18.667Z,69.70
2019-01-06T17:19:46.889Z,68.83
2019-01-06T17:25:13.085Z,69.62
2019-01-06T17:30:40.225Z,70.36
2019-01-06T17:36:09.467Z,69.95
2019-01-06T17:41:51.292Z,69.55
2019-01-06T17:47:16.421Z,68.97
2019-01-06T17:52:42.295Z,69.33
2019-01-06T17:58:06.052Z,69.68
2019-01-06T18:03:29.278Z,69.59
2019-01-06T18:08:59.409Z,69.39
2019-01-06T18:14:24.312Z,69.04
2019-01-06T18:19:51.950Z,69.47
2019-01-06T18:25:37.775Z,69.37
2019-01-06T18:31:13.156Z,69.31
2019-01-06T18:36:47.513Z,69.98
2019-01-06T18:42:14.351Z,70.66
2019-01-06T18:47:40.114Z,70.65
2019-01-06T18:53:13.977Z,70.95
2019-01-06T18:58:35.966Z,71.81
2019-01-06T19:04:02.045Z,72.55
2019-01-06T19:09:41.351Z,73.13
2019-01-06T19:15:20.755Z,72.60
2019-01-06T19:20:49.040Z,72.44
2019-01-06T19:26:13.947Z,71.63
2019-01-06T19:31:37.396Z,73.35
2019-01-06T19:37:03.887Z,71.56
2019-01-06T19:42:35.212Z,71.53
2019-01-06T19:48:18.639Z,71.43
2019-01-06T19:53:50.803Z,71.52
2019-01-06T19:59:16.665Z,71.21
2019-01-06T20:04:38.382Z,70.76
2019-01-06T20:10:05.029Z,70.43
2019-01-06T20:15:42.881Z,70.74
2019-01-06T20:21:23.409Z,70.67
2019-01-06T20:26:51.096Z,70.68
2019-01-06T20:32:18.379Z,70.86
2019-01-06T20:37:41.857Z,71.16
2019-01-06T20:43:11.044Z,70.26
2019-01-06T20:48:48.098Z,70.46
2019-01-06T20:54:15.780Z,70.58
2019-01-06T20:59:41.641Z,70.38
2019-01-06T21:05:07.871Z,69.51
2019-01-06T21:10:42.886Z,69.21
2019-01-06T21:16:08.770Z,68.34
2019-01-06T21:21:27.551Z,70.72
2019-01-06T21:27:01.553Z,70.16
2019-01-06T21:32:28.995Z,70.21
2019-01-06T21:37:59.809Z,70.50
2019-01-06T21:43:24.567Z,70.40
2019-01-06T21:48:48.427Z,71.44
2019-01-06T21:54:11.742Z,70.83
2019-01-06T21:59:35.327Z,69.98
2019-01-06T22:05:00.857Z,69.75
2019-01-06T22:10:41.110Z,69.39
2019-01-06T22:16:04.752Z,68.98
2019-01-06T22:21:29.311Z,69.54
2019-01-06T22:26:57.170Z,68.92
2019-01-06T22:32:25.379Z,69.51
2019-01-06T22:37:55.274Z,69.76
2019-01-06T22:43:25.385Z,69.27
2019-01-06T22:49:02.091Z,69.44
2019-01-06T22:54:35.668Z,69.63
2019-01-06T22:59:59.129Z,71.27
2019-01-06T23:05:22.483Z,70.49
2019-01-06T23:10:48.217Z,70.59
2019-01-06T23:16:17.420Z,71.25
2019-01-06T23:22:02.210Z,71.20
2019-01-06T23:27:16.704Z,71.10
2019-01-06T23:32:47.416Z,71.47
2019-01-06T23:38:27.269Z,70.69
2019-01-06T23:43:54.932Z,70.78
2019-01-06T23:49:22.939Z,70.94
2019-01-06T23:54:56.210Z,70.61
